createdAt,value
2018-10-06T00:00:26.968Z,34.70
2018-10-06T00:02:55.707Z,35.30
2018-10-06T00:05:24.523Z,35.00
2018-10-06T00:07:53.263Z,35.00
2018-10-06T00:10:22.081Z,35.10
2018-10-06T00:12:50.798Z,34.90
2018-10-06T00:15:19.503Z,34.50
2018-10-06T00:17:48.387Z,34.70
2018-10-06T00:20:17.142Z,35.20
2018-10-06T00:22:45.929Z,35.10
2018-10-06T00:25:14.754Z,35.00
2018-10-06T00:27:43.743Z,35.20
2018-10-06T00:30:12.506Z,34.80
2018-10-06T00:32:41.308Z,35.10
2018-10-06T00:35:10.080Z,34.70
2018-10-06T00:37:43.982Z,34.80
2018-10-06T00:40:12.889Z,34.30
2018-10-06T00:42:41.615Z,34.20
2018-10-06T00:45:10.337Z,34.40
2018-10-06T00:47:39.027Z,35.00
2018-10-06T00:50:07.695Z,35.40
2018-10-06T00:52:36.420Z,35.20
2018-10-06T00:55:05.114Z,35.20
2018-10-06T01:00:26.743Z,34.80
2018-10-06T01:02:55.443Z,35.10
2018-10-06T01:05:24.301Z,34.80
2018-10-06T01:07:53.568Z,34.90
2018-10-06T01:10:22.272Z,35.60
2018-10-06T01:12:51.029Z,45.20
2018-10-06T01:15:19.795Z,62.50
2018-10-06T01:17:48.821Z,72.20
2018-10-06T01:20:17.692Z,85.60
2018-10-06T01:22:46.447Z,93.70
2018-10-06T01:25:15.155Z,99.50
2018-10-06T01:27:44.150Z,97.70
2018-10-06T01:30:12.974Z,99.90
2018-10-06T01:32:41.767Z,99.90
2018-10-06T01:35:10.498Z,99.90
2018-10-06T01:37:39.260Z,99.90
2018-10-06T01:40:08.024Z,99.90
2018-10-06T01:42:36.720Z,99.90
2018-10-06T01:45:05.546Z,99.90
2018-10-06T01:47:34.555Z,99.90
2018-10-06T01:50:03.336Z,99.90
2018-10-06T01:52:32.115Z,99.90
2018-10-06T01:55:00.895Z,99.90
2018-10-06T01:57:30.044Z,99.90
2018-10-06T01:59:58.868Z,99.90
2018-10-06T02:02:27.622Z,99.90
2018-10-06T02:04:56.390Z,99.90
2018-10-06T02:07:25.304Z,99.90
2018-10-06T02:09:54.075Z,99.90
2018-10-06T02:12:22.938Z,99.90
2018-10-06T02:14:51.726Z,99.90
2018-10-06T02:17:20.584Z,99.90
2018-10-06T02:19:49.338Z,99.90
2018-10-06T02:22:18.110Z,99.90
2018-10-06T02:24:46.937Z,99.90
2018-10-06T02:27:15.765Z,99.90
2018-10-06T02:29:44.438Z,99.90
2018-10-06T02:32:13.213Z,99.90
2018-10-06T02:34:41.910Z,99.90
2018-10-06T02:37:10.651Z,99.90
2018-10-06T02:39:39.403Z,99.90
2018-10-06T02:42:08.137Z,99.90
2018-10-06T02:44:36.817Z,99.90
2018-10-06T02:47:05.558Z,99.90
2018-10-06T02:49:34.478Z,99.90
2018-10-06T02:52:03.214Z,99.90
2018-10-06T02:54:31.983Z,99.90
2018-10-06T02:57:00.744Z,99.90
2018-10-06T02:59:29.854Z,99.90
2018-10-06T03:01:58.711Z,99.90
2018-10-06T03:04:27.687Z,99.90
2018-10-06T03:06:56.478Z,99.90
2018-10-06T03:09:25.238Z,99.90
2018-10-06T03:11:54.018Z,99.90
2018-10-06T03:14:22.824Z,99.90
2018-10-06T03:16:51.563Z,99.90
2018-10-06T03:19:20.361Z,99.90
2018-10-06T03:21:49.103Z,99.90
2018-10-06T03:24:17.821Z,99.90
2018-10-06T03:26:46.571Z,99.90
2018-10-06T03:29:34.026Z,99.90
2018-10-06T03:32:02.769Z,99.90
2018-10-06T03:34:31.470Z,99.90
2018-10-06T03:37:00.600Z,99.90
2018-10-06T03:39:29.370Z,99.90
2018-10-06T03:41:58.090Z,99.90
2018-10-06T03:44:26.742Z,99.90
2018-10-06T03:46:55.665Z,99.90
2018-10-06T03:49:38.338Z,99.90
2018-10-06T03:52:07.160Z,99.90
2018-10-06T03:54:35.940Z,99.90
2018-10-06T03:57:04.791Z,99.90
2018-10-06T03:59:33.560Z,99.90
2018-10-06T04:02:02.341Z,99.90
2018-10-06T04:04:31.031Z,99.90
2018-10-06T04:07:00.115Z,99.90
2018-10-06T04:12:21.911Z,99.90
2018-10-06T04:14:50.590Z,99.90
2018-10-06T04:17:19.566Z,99.90
2018-10-06T04:19:48.311Z,99.90
2018-10-06T04:22:17.015Z,99.90
2018-10-06T04:24:45.704Z,99.90
2018-10-06T04:27:14.399Z,99.90
2018-10-06T04:29:43.042Z,99.90
2018-10-06T04:32:11.715Z,99.90
2018-10-06T04:34:40.490Z,99.90
2018-10-06T04:37:09.265Z,99.90
2018-10-06T04:39:51.639Z,99.90
2018-10-06T04:42:20.335Z,99.90
2018-10-06T04:44:48.973Z,99.90
2018-10-06T04:47:17.702Z,99.90
2018-10-06T04:49:46.370Z,99.90
2018-10-06T04:52:15.109Z,99.90
2018-10-06T04:54:43.905Z,99.90
2018-10-06T04:57:12.541Z,99.90
2018-10-06T04:59:41.285Z,99.90
2018-10-06T05:02:10.069Z,99.90
2018-10-06T05:04:38.829Z,99.90
2018-10-06T05:07:07.604Z,99.90
2018-10-06T05:09:49.970Z,99.90
2018-10-06T05:12:18.651Z,99.90
2018-10-06T05:14:47.329Z,99.90
2018-10-06T05:17:15.981Z,99.90
2018-10-06T05:19:44.698Z,99.90
2018-10-06T05:22:13.370Z,99.90
2018-10-06T05:24:42.035Z,99.90
2018-10-06T05:27:10.766Z,99.90
2018-10-06T05:29:39.712Z,99.90
2018-10-06T05:32:08.439Z,99.90
2018-10-06T05:34:37.110Z,99.90
2018-10-06T05:37:05.828Z,99.90
2018-10-06T05:39:34.674Z,99.90
2018-10-06T05:42:03.283Z,99.90
2018-10-06T05:44:32.000Z,99.90
2018-10-06T05:47:00.763Z,99.90
2018-10-06T05:49:29.463Z,99.90
2018-10-06T05:51:58.154Z,99.90
2018-10-06T05:54:26.864Z,99.90
2018-10-06T05:56:55.494Z,99.90
2018-10-06T05:59:24.211Z,99.90
2018-10-06T06:01:52.947Z,99.90
2018-10-06T06:04:21.623Z,99.90
2018-10-06T06:06:50.347Z,99.90
2018-10-06T06:09:19.298Z,99.90
2018-10-06T06:11:47.903Z,99.90
2018-10-06T06:14:16.615Z,99.90
2018-10-06T06:16:45.371Z,99.90
2018-10-06T06:19:14.288Z,99.90
2018-10-06T06:21:42.926Z,99.90
2018-10-06T06:24:11.666Z,99.90
2018-10-06T06:26:40.527Z,99.90
2018-10-06T06:29:18.751Z,99.90
2018-10-06T06:31:47.506Z,99.90
2018-10-06T06:34:16.202Z,99.90
2018-10-06T06:36:44.995Z,99.90
2018-10-06T06:39:13.866Z,99.90
2018-10-06T06:41:42.594Z,99.90
2018-10-06T06:44:11.306Z,99.90
2018-10-06T06:46:40.014Z,99.90
2018-10-06T06:49:08.902Z,97.20
2018-10-06T06:51:37.582Z,93.50
2018-10-06T06:54:06.394Z,90.90
2018-10-06T06:56:35.052Z,86.80
2018-10-06T06:59:03.955Z,82.70
2018-10-06T07:01:32.578Z,81.60
2018-10-06T07:04:01.311Z,79.60
2018-10-06T07:06:29.954Z,79.50
2018-10-06T07:08:58.686Z,77.60
2018-10-06T07:11:27.435Z,76.20
2018-10-06T07:13:56.106Z,75.80
2018-10-06T07:16:24.799Z,75.40
2018-10-06T07:18:53.493Z,75.30
2018-10-06T07:21:22.150Z,75.10
2018-10-06T07:23:50.858Z,73.80
2018-10-06T07:26:19.522Z,73.40
2018-10-06T07:28:53.751Z,74.80
2018-10-06T07:31:22.434Z,72.50
2018-10-06T07:33:51.110Z,72.10
2018-10-06T07:36:19.807Z,71.40
2018-10-06T07:41:41.516Z,70.60
2018-10-06T07:44:10.195Z,70.30
2018-10-06T07:46:38.902Z,70.00
2018-10-06T07:49:07.903Z,69.40
2018-10-06T07:51:36.896Z,69.60
2018-10-06T07:54:05.646Z,69.40
2018-10-06T07:56:34.352Z,69.70
2018-10-06T07:59:03.066Z,70.40
2018-10-06T08:01:31.765Z,70.00
2018-10-06T08:04:00.566Z,70.80
2018-10-06T08:06:29.231Z,69.70
2018-10-06T08:08:57.893Z,69.70
2018-10-06T08:11:26.645Z,70.40
2018-10-06T08:13:55.246Z,91.60
2018-10-06T08:16:23.909Z,97.40
2018-10-06T08:22:08.313Z,99.90
2018-10-06T08:24:37.106Z,99.90
2018-10-06T08:27:05.782Z,99.90
2018-10-06T08:29:34.482Z,99.90
2018-10-06T08:32:03.141Z,99.90
2018-10-06T08:34:31.849Z,99.90
2018-10-06T08:37:00.539Z,99.90
2018-10-06T08:39:29.376Z,99.90
2018-10-06T08:41:57.991Z,99.90
2018-10-06T08:44:26.585Z,99.90
2018-10-06T08:46:55.352Z,99.90
2018-10-06T08:49:24.118Z,99.90
2018-10-06T08:51:52.916Z,99.90
2018-10-06T08:54:21.643Z,99.90
2018-10-06T08:56:50.436Z,99.90
2018-10-06T08:59:19.214Z,99.90
2018-10-06T09:01:47.893Z,99.90
2018-10-06T09:04:16.646Z,99.90
2018-10-06T09:06:45.335Z,99.90
2018-10-06T09:09:14.059Z,99.90
2018-10-06T09:11:42.813Z,99.90
2018-10-06T09:14:11.591Z,99.90
2018-10-06T09:16:40.318Z,99.90
2018-10-06T09:19:09.018Z,99.90
2018-10-06T09:21:37.694Z,99.90
2018-10-06T09:24:06.557Z,99.90
2018-10-06T09:26:35.332Z,99.90
2018-10-06T09:29:21.895Z,99.90
2018-10-06T09:31:50.599Z,99.90
2018-10-06T09:34:19.327Z,99.90
2018-10-06T09:36:48.012Z,99.90
2018-10-06T09:39:16.690Z,99.90
2018-10-06T09:41:45.411Z,99.90
2018-10-06T09:44:14.099Z,99.90
2018-10-06T09:46:42.786Z,99.90
2018-10-06T09:49:11.626Z,99.90
2018-10-06T09:51:40.630Z,99.90
2018-10-06T09:54:09.328Z,99.90
2018-10-06T09:56:38.058Z,99.90
2018-10-06T09:59:07.207Z,98.90
2018-10-06T10:01:41.043Z,99.00
2018-10-06T10:04:12.231Z,98.50
2018-10-06T10:06:41.434Z,97.20
2018-10-06T10:09:12.110Z,97.00
2018-10-06T10:11:40.762Z,96.30
2018-10-06T10:14:09.907Z,96.20
2018-10-06T10:16:38.550Z,96.10
2018-10-06T10:19:07.511Z,96.20
2018-10-06T10:21:36.127Z,96.00
2018-10-06T10:24:04.794Z,94.70
2018-10-06T10:26:34.255Z,94.10
2018-10-06T10:29:03.202Z,93.80
2018-10-06T10:31:31.899Z,94.70
2018-10-06T10:34:00.874Z,95.00
2018-10-06T10:36:29.578Z,94.60
2018-10-06T10:38:58.511Z,94.80
2018-10-06T10:44:19.950Z,94.90
2018-10-06T10:46:48.760Z,94.90
2018-10-06T10:52:10.826Z,94.30
2018-10-06T10:54:39.584Z,93.60
2018-10-06T10:57:08.415Z,91.90
2018-10-06T10:59:46.673Z,91.40
2018-10-06T11:02:15.276Z,92.00
2018-10-06T11:04:44.039Z,91.70
2018-10-06T11:07:12.653Z,88.70
2018-10-06T11:09:46.662Z,86.90
2018-10-06T11:12:15.670Z,85.90
2018-10-06T11:14:44.346Z,82.50
2018-10-06T11:17:13.761Z,81.50
2018-10-06T11:19:42.565Z,80.90
2018-10-06T11:22:11.578Z,79.30
2018-10-06T11:24:40.316Z,79.20
2018-10-06T11:27:08.993Z,77.60
2018-10-06T11:29:37.700Z,78.40
2018-10-06T11:32:06.390Z,78.60
2018-10-06T11:34:35.558Z,76.20
2018-10-06T11:37:04.280Z,75.10
2018-10-06T11:39:32.951Z,74.00
2018-10-06T11:42:01.616Z,73.80
2018-10-06T11:44:30.325Z,73.20
2018-10-06T11:46:59.014Z,72.70
2018-10-06T11:49:27.742Z,73.10
2018-10-06T11:51:56.469Z,73.10
2018-10-06T11:54:25.173Z,73.00
2018-10-06T11:56:54.474Z,80.60
2018-10-06T12:02:16.375Z,74.50
2018-10-06T12:04:45.081Z,72.50
2018-10-06T12:07:13.750Z,73.00
2018-10-06T12:09:42.762Z,74.60
2018-10-06T12:12:11.479Z,76.70
2018-10-06T12:14:40.146Z,77.80
2018-10-06T12:17:08.970Z,79.40
2018-10-06T12:19:37.802Z,81.90
2018-10-06T12:22:06.510Z,81.90
2018-10-06T12:24:35.239Z,83.30
2018-10-06T12:27:03.878Z,85.50
2018-10-06T12:29:32.551Z,83.90
2018-10-06T12:32:01.215Z,84.80
2018-10-06T12:34:29.998Z,85.50
2018-10-06T12:36:58.704Z,84.70
2018-10-06T12:39:27.363Z,83.50
2018-10-06T12:41:56.107Z,85.00
2018-10-06T12:44:25.328Z,86.30
2018-10-06T12:46:54.035Z,83.70
2018-10-06T12:49:22.897Z,83.00
2018-10-06T12:51:51.706Z,84.10
2018-10-06T12:54:20.725Z,83.80
2018-10-06T12:56:49.387Z,84.00
2018-10-06T12:59:18.316Z,82.00
2018-10-06T13:01:46.998Z,84.20
2018-10-06T13:04:15.679Z,83.70
2018-10-06T13:06:44.361Z,83.50
2018-10-06T13:09:26.673Z,84.30
2018-10-06T13:11:55.395Z,86.60
2018-10-06T13:14:24.063Z,86.60
2018-10-06T13:16:52.803Z,88.10
2018-10-06T13:19:26.935Z,86.50
2018-10-06T13:21:55.585Z,86.60
2018-10-06T13:24:24.272Z,87.30
2018-10-06T13:26:53.052Z,85.20
2018-10-06T13:32:24.240Z,88.20
2018-10-06T13:34:52.950Z,88.10
2018-10-06T13:37:21.820Z,89.00
2018-10-06T13:39:50.470Z,88.90
2018-10-06T13:42:19.229Z,88.80
2018-10-06T13:44:47.868Z,87.80
2018-10-06T13:47:16.594Z,73.90
2018-10-06T13:49:45.461Z,74.40
2018-10-06T13:52:14.133Z,68.20
2018-10-06T13:54:42.758Z,65.50
2018-10-06T13:57:11.446Z,60.80
2018-10-06T13:59:54.246Z,59.70
2018-10-06T14:02:23.282Z,60.30
2018-10-06T14:04:51.941Z,59.10
2018-10-06T14:07:20.606Z,58.10
2018-10-06T14:09:49.367Z,57.10
2018-10-06T14:12:18.079Z,56.40
2018-10-06T14:14:46.857Z,56.60
2018-10-06T14:17:15.524Z,56.00
2018-10-06T14:19:44.737Z,56.60
2018-10-06T14:22:13.372Z,56.00
2018-10-06T14:24:42.173Z,56.50
2018-10-06T14:27:10.880Z,56.00
2018-10-06T14:29:39.747Z,56.90
2018-10-06T14:32:08.443Z,57.20
2018-10-06T14:34:37.168Z,55.90
2018-10-06T14:37:06.078Z,55.80
2018-10-06T14:39:34.855Z,56.60
2018-10-06T14:42:03.816Z,54.10
2018-10-06T14:44:32.512Z,54.20
2018-10-06T14:47:01.254Z,54.50
2018-10-06T14:49:29.866Z,54.70
2018-10-06T14:51:58.561Z,54.10
2018-10-06T14:54:27.283Z,53.90
2018-10-06T14:56:56.096Z,53.60
2018-10-06T14:59:24.787Z,54.80
2018-10-06T15:01:53.506Z,54.70
2018-10-06T15:04:22.183Z,55.10
2018-10-06T15:06:50.806Z,54.20
2018-10-06T15:09:19.634Z,54.30
2018-10-06T15:11:48.235Z,55.40
2018-10-06T15:14:16.903Z,55.20
2018-10-06T15:16:46.307Z,56.20
2018-10-06T15:19:14.931Z,56.80
2018-10-06T15:21:43.624Z,56.50
2018-10-06T15:24:12.293Z,55.20
2018-10-06T15:26:41.223Z,53.90
2018-10-06T15:29:09.895Z,54.20
2018-10-06T15:31:38.575Z,54.60
2018-10-06T15:34:07.335Z,54.90
2018-10-06T15:36:36.050Z,55.40
2018-10-06T15:39:05.815Z,55.60
2018-10-06T15:41:35.278Z,56.30
2018-10-06T15:44:03.946Z,56.70
2018-10-06T15:46:32.671Z,56.30
2018-10-06T15:49:01.498Z,56.50
2018-10-06T15:51:30.247Z,56.80
2018-10-06T15:53:59.175Z,56.80
2018-10-06T15:56:27.874Z,56.60
2018-10-06T15:58:56.635Z,56.80
2018-10-06T16:01:25.327Z,57.00
2018-10-06T16:03:54.127Z,56.60
2018-10-06T16:06:22.848Z,56.70
2018-10-06T16:08:51.815Z,56.90
2018-10-06T16:11:20.535Z,57.30
2018-10-06T16:13:49.137Z,56.70
2018-10-06T16:16:17.763Z,56.30
2018-10-06T16:18:46.427Z,56.10
2018-10-06T16:21:15.191Z,56.60
2018-10-06T16:23:43.996Z,56.80
2018-10-06T16:26:12.676Z,56.90
2018-10-06T16:28:41.391Z,57.50
2018-10-06T16:31:10.094Z,57.70
2018-10-06T16:33:38.883Z,57.90
2018-10-06T16:36:07.538Z,58.50
2018-10-06T16:38:41.523Z,58.30
2018-10-06T16:41:10.314Z,58.30
2018-10-06T16:43:39.046Z,59.10
2018-10-06T16:46:07.694Z,58.80
2018-10-06T16:48:36.588Z,58.90
2018-10-06T16:51:05.295Z,58.80
2018-10-06T16:53:34.230Z,58.80
2018-10-06T16:56:02.927Z,57.70
2018-10-06T16:58:32.043Z,57.90
2018-10-06T17:01:00.845Z,58.20
2018-10-06T17:03:29.612Z,58.80
2018-10-06T17:05:58.488Z,58.70
2018-10-06T17:08:27.192Z,58.70
2018-10-06T17:10:55.902Z,58.90
2018-10-06T17:13:24.589Z,58.70
2018-10-06T17:15:53.210Z,58.30
2018-10-06T17:18:21.953Z,57.80
2018-10-06T17:20:50.633Z,57.60
2018-10-06T17:23:19.317Z,57.80
2018-10-06T17:25:47.980Z,57.80
2018-10-06T17:28:30.234Z,57.50
2018-10-06T17:30:58.995Z,57.50
2018-10-06T17:33:27.677Z,57.70
2018-10-06T17:35:56.399Z,57.50
2018-10-06T17:38:25.062Z,58.30
2018-10-06T17:40:53.763Z,57.80
2018-10-06T17:43:22.503Z,56.90
2018-10-06T17:45:51.799Z,57.00
2018-10-06T17:48:20.666Z,57.00
2018-10-06T17:50:49.591Z,57.00
2018-10-06T17:53:18.153Z,57.60
2018-10-06T17:55:46.920Z,58.10
2018-10-06T17:58:15.774Z,58.00
2018-10-06T18:00:44.434Z,58.10
2018-10-06T18:03:13.186Z,57.90
2018-10-06T18:05:41.991Z,58.50
2018-10-06T18:08:10.775Z,59.30
2018-10-06T18:10:39.518Z,59.60
2018-10-06T18:13:08.207Z,58.80
2018-10-06T18:15:36.851Z,58.80
2018-10-06T18:18:20.269Z,58.80
2018-10-06T18:20:49.040Z,58.90
2018-10-06T18:23:17.774Z,58.50
2018-10-06T18:25:46.450Z,58.40
2018-10-06T18:28:15.331Z,58.60
2018-10-06T18:30:43.985Z,58.50
2018-10-06T18:33:12.715Z,58.20
2018-10-06T18:35:41.398Z,58.10
2018-10-06T18:41:12.444Z,58.00
2018-10-06T18:43:41.214Z,58.40
2018-10-06T18:46:09.952Z,58.30
2018-10-06T18:48:38.591Z,58.50
2018-10-06T18:51:07.356Z,59.00
2018-10-06T18:53:36.803Z,58.70
2018-10-06T18:56:05.518Z,58.70
2018-10-06T18:58:47.882Z,59.10
2018-10-06T19:01:17.002Z,59.00
2018-10-06T19:03:45.792Z,58.50
2018-10-06T19:06:14.451Z,58.80
2018-10-06T19:08:43.133Z,58.80
2018-10-06T19:11:11.850Z,58.80
2018-10-06T19:13:40.698Z,58.90
2018-10-06T19:16:09.431Z,58.90
2018-10-06T19:18:38.210Z,58.70
2018-10-06T19:21:07.003Z,58.80
2018-10-06T19:23:35.778Z,58.90
2018-10-06T19:26:04.494Z,58.70
2018-10-06T19:28:42.771Z,58.60
2018-10-06T19:31:11.491Z,58.40
2018-10-06T19:33:40.143Z,58.30
2018-10-06T19:36:08.858Z,58.60
2018-10-06T19:38:37.594Z,58.20
2018-10-06T19:41:06.329Z,58.50
2018-10-06T19:43:35.055Z,58.60
2018-10-06T19:46:04.029Z,62.10
2018-10-06T19:48:32.693Z,64.00
2018-10-06T19:51:01.447Z,61.70
2018-10-06T19:53:30.205Z,61.80
2018-10-06T19:55:58.988Z,60.00
2018-10-06T19:58:27.991Z,60.30
2018-10-06T20:00:56.778Z,62.90
2018-10-06T20:03:25.553Z,62.90
2018-10-06T20:05:54.281Z,65.10
2018-10-06T20:08:23.282Z,64.50
2018-10-06T20:10:51.997Z,65.50
2018-10-06T20:13:20.735Z,65.30
2018-10-06T20:15:49.520Z,66.30
2018-10-06T20:18:18.337Z,66.20
2018-10-06T20:20:47.022Z,65.70
2018-10-06T20:23:15.779Z,66.60
2018-10-06T20:25:44.568Z,66.40
2018-10-06T20:28:13.297Z,66.40
2018-10-06T20:30:42.066Z,67.10
2018-10-06T20:33:10.822Z,67.70
2018-10-06T20:35:39.522Z,68.00
2018-10-06T20:38:08.187Z,67.90
2018-10-06T20:40:36.998Z,68.10
2018-10-06T20:43:05.822Z,68.50
2018-10-06T20:45:34.583Z,68.60
2018-10-06T20:48:03.458Z,69.20
2018-10-06T20:50:32.137Z,69.60
2018-10-06T20:53:00.898Z,69.40
2018-10-06T20:55:29.687Z,70.00
2018-10-06T20:58:03.390Z,70.50
2018-10-06T21:00:32.194Z,72.90
2018-10-06T21:03:00.966Z,75.20
2018-10-06T21:05:29.736Z,73.60
2018-10-06T21:07:58.498Z,72.50
2018-10-06T21:10:27.350Z,72.10
2018-10-06T21:12:56.111Z,72.80
2018-10-06T21:15:24.854Z,73.80
2018-10-06T21:17:53.515Z,75.50
2018-10-06T21:20:22.206Z,74.40
2018-10-06T21:22:51.146Z,74.10
2018-10-06T21:25:19.876Z,72.40
2018-10-06T21:27:48.656Z,73.20
2018-10-06T21:30:17.359Z,73.30
2018-10-06T21:32:46.114Z,74.70
2018-10-06T21:35:14.796Z,73.90
2018-10-06T21:37:43.551Z,74.40
2018-10-06T21:40:30.204Z,73.90
2018-10-06T21:42:58.859Z,75.00
2018-10-06T21:45:27.599Z,76.60
2018-10-06T21:47:56.475Z,75.00
2018-10-06T21:50:25.178Z,76.40
2018-10-06T21:52:53.877Z,77.50
2018-10-06T21:55:22.804Z,78.50
2018-10-06T21:57:51.589Z,79.30
2018-10-06T22:00:20.433Z,79.60
2018-10-06T22:02:49.165Z,80.70
2018-10-06T22:05:17.879Z,82.00
2018-10-06T22:07:46.608Z,83.40
2018-10-06T22:10:15.302Z,84.90
2018-10-06T22:12:44.062Z,85.60
2018-10-06T22:15:12.757Z,86.90
2018-10-06T22:17:41.438Z,88.20
2018-10-06T22:20:10.205Z,89.50
2018-10-06T22:22:38.962Z,89.90
2018-10-06T22:25:07.698Z,90.60
2018-10-06T22:27:36.450Z,91.40
2018-10-06T22:30:05.767Z,92.20
2018-10-06T22:32:34.618Z,92.20
2018-10-06T22:35:03.419Z,92.40
2018-10-06T22:37:32.332Z,93.60
2018-10-06T22:42:54.019Z,94.10
2018-10-06T22:45:22.812Z,94.30
2018-10-06T22:47:51.627Z,94.10
2018-10-06T22:50:20.347Z,94.40
2018-10-06T22:52:49.077Z,94.90
2018-10-06T22:55:17.777Z,95.00
2018-10-06T22:57:46.528Z,95.60
2018-10-06T23:00:15.483Z,95.50
2018-10-06T23:02:44.201Z,96.00
2018-10-06T23:05:12.980Z,96.40
2018-10-06T23:07:41.731Z,96.40
2018-10-06T23:13:08.698Z,96.40
2018-10-06T23:15:37.423Z,97.10
2018-10-06T23:18:06.214Z,97.30
2018-10-06T23:20:35.035Z,98.40
2018-10-06T23:23:03.829Z,98.50
2018-10-06T23:25:32.666Z,98.90
2018-10-06T23:28:01.345Z,99.30
2018-10-06T23:30:30.123Z,99.80
2018-10-06T23:32:58.872Z,99.90
2018-10-06T23:35:27.607Z,99.90
2018-10-06T23:37:56.294Z,99.90
2018-10-06T23:40:24.966Z,99.90
2018-10-06T23:42:53.666Z,99.90
2018-10-06T23:45:22.462Z,99.90
2018-10-06T23:47:51.188Z,99.90
2018-10-06T23:50:19.846Z,99.90
2018-10-06T23:52:48.693Z,99.90
2018-10-06T23:55:17.473Z,99.90
2018-10-06T23:57:46.186Z,99.90
